Time;durP1;ratioP1;P1;durP2;ratioP2;P2;SDS_P1;SDS_P2;PMS_P1;PMS_P2;Temp;Humidity;BMP_temperature;BMP_pressure;BME280_temperature;BME280_humidity;BME280_pressure;Samples;Min_cycle;Max_cycle;Signal;HPM_P1;HPM_P2
2021/03/01 00:00:20;;;;;;;13.82;7.45;;;;;;;-0.92;62.93;94467.34;5089703;28;20071;-44
2021/03/01 00:02:46;;;;;;;24.65;11.05;;;;;;;-0.83;63.01;94467.38;5090182;28;20016;-44
2021/03/01 00:05:13;;;;;;;21.08;10.68;;;;;;;-1.04;63.73;94465.50;5088718;28;20106;-44
2021/03/01 00:07:39;;;;;;;26.00;12.13;;;;;;;-0.91;62.83;94468.13;5088742;28;20097;-43
2021/03/01 00:10:05;;;;;;;23.38;12.07;;;;;;;-0.96;62.70;94471.41;5089955;28;20485;-44
2021/03/01 00:12:31;;;;;;;41.83;15.93;;;;;;;-1.29;63.54;94465.78;5089899;28;20036;-43
2021/03/01 00:14:56;;;;;;;28.02;12.15;;;;;;;-1.35;64.35;94455.97;5089948;28;20085;-42
2021/03/01 00:17:22;;;;;;;20.60;9.73;;;;;;;-1.17;65.31;94466.88;5089968;28;20028;-42
2021/03/01 00:19:47;;;;;;;16.15;8.20;;;;;;;-1.11;64.01;94462.34;5089993;28;20516;-42
2021/03/01 00:22:13;;;;;;;28.17;10.38;;;;;;;-1.20;63.38;94454.97;5089924;28;20408;-44
2021/03/01 00:24:38;;;;;;;31.67;13.55;;;;;;;-1.24;63.25;94453.59;5089949;28;20035;-42
2021/03/01 00:27:04;;;;;;;42.85;19.08;;;;;;;-1.25;64.03;94443.94;5089772;28;20016;-41
2021/03/01 00:29:29;;;;;;;45.70;19.92;;;;;;;-1.23;64.70;94447.72;5092377;28;20023;-42
2021/03/01 00:31:55;;;;;;;66.30;26.02;;;;;;;-1.56;66.05;94439.34;5093026;28;20095;-42
2021/03/01 00:34:20;;;;;;;47.88;20.17;;;;;;;-1.69;66.27;94443.41;5093261;28;20062;-41
2021/03/01 00:36:46;;;;;;;30.95;12.18;;;;;;;-1.68;66.63;94439.47;5093377;28;20115;-42
2021/03/01 00:39:11;;;;;;;22.90;12.73;;;;;;;-1.66;66.30;94437.81;5093285;28;20153;-42
2021/03/01 00:41:36;;;;;;;25.42;12.77;;;;;;;-1.70;65.03;94436.47;5093403;28;20040;-43
2021/03/01 00:44:02;;;;;;;29.02;14.65;;;;;;;-1.71;65.62;94435.69;5093256;28;20032;-44
2021/03/01 00:46:28;;;;;;;25.85;14.75;;;;;;;-1.76;64.78;94435.53;5093318;28;20039;-44
2021/03/01 00:48:53;;;;;;;45.42;21.23;;;;;;;-1.77;65.57;94432.06;5093466;28;20028;-42
2021/03/01 00:51:19;;;;;;;50.25;22.95;;;;;;;-1.68;65.70;94429.41;5093158;28;20031;-41
2021/03/01 00:53:44;;;;;;;38.53;19.42;;;;;;;-1.69;66.08;94429.84;5092412;28;20109;-43
2021/03/01 00:56:09;;;;;;;33.10;17.92;;;;;;;-1.67;64.88;94430.91;5093014;28;20039;-42
2021/03/01 00:58:35;;;;;;;15.93;7.55;;;;;;;-1.91;65.12;94424.50;5092949;28;20109;-44
2021/03/01 01:01:00;;;;;;;15.20;8.18;;;;;;;-1.66;64.89;94415.41;5093054;28;20052;-42
2021/03/01 01:03:26;;;;;;;23.40;10.13;;;;;;;-1.68;64.50;94413.16;5092941;28;20462;-41
2021/03/01 01:05:51;;;;;;;26.35;12.35;;;;;;;-1.77;65.46;94415.06;5091800;28;20027;-41
2021/03/01 01:08:17;;;;;;;21.20;10.60;;;;;;;-1.85;65.02;94413.84;5092985;28;20569;-43
2021/03/01 01:10:42;;;;;;;22.00;8.50;;;;;;;-2.12;66.33;94406.34;5092854;28;20047;-46
2021/03/01 01:13:08;;;;;;;17.17;8.57;;;;;;;-2.07;65.87;94399.63;5092994;28;20467;-44
2021/03/01 01:15:34;;;;;;;18.13;10.13;;;;;;;-1.81;65.73;94409.03;5092702;28;20020;-43
2021/03/01 01:17:59;;;;;;;22.83;11.43;;;;;;;-1.73;65.47;94412.97;5092721;28;20099;-46
2021/03/01 01:20:26;;;;;;;30.25;12.05;;;;;;;-1.86;65.88;94407.66;5092576;28;20034;-45
2021/03/01 01:22:51;;;;;;;17.00;8.32;;;;;;;-1.83;65.30;94409.50;5092823;28;20016;-46
2021/03/01 01:25:17;;;;;;;12.68;6.82;;;;;;;-2.08;66.45;94403.53;5092636;28;20036;-45
2021/03/01 01:27:42;;;;;;;59.47;18.65;;;;;;;-1.85;66.03;94403.78;5092377;28;20492;-46
2021/03/01 01:30:11;;;;;;;72.57;22.80;;;;;;;-1.86;66.55;94393.38;5092481;28;20046;-45
2021/03/01 01:32:36;;;;;;;36.97;15.18;;;;;;;-2.01;67.08;94393.19;5092482;28;20047;-45
2021/03/01 01:35:07;;;;;;;21.55;10.95;;;;;;;-2.01;66.84;94395.88;5091631;28;20689;-47
2021/03/01 01:37:33;;;;;;;13.77;8.13;;;;;;;-2.10;66.19;94387.72;5091721;28;20135;-46
2021/03/01 01:39:58;;;;;;;20.38;10.05;;;;;;;-1.99;64.85;94392.75;5091869;28;20055;-44
2021/03/01 01:42:23;;;;;;;17.95;10.43;;;;;;;-2.07;65.31;94389.56;5092069;28;20103;-44
2021/03/01 01:44:49;;;;;;;29.80;13.52;;;;;;;-2.05;65.02;94391.81;5092307;28;20024;-45
2021/03/01 01:47:14;;;;;;;21.52;10.95;;;;;;;-2.08;65.41;94388.03;5092160;28;20031;-44
2021/03/01 01:49:40;;;;;;;23.65;12.02;;;;;;;-1.96;64.60;94389.91;5092201;28;20023;-47
2021/03/01 01:52:05;;;;;;;31.02;14.95;;;;;;;-2.03;65.08;94386.69;5092012;28;20024;-44
2021/03/01 01:54:32;;;;;;;28.75;13.13;;;;;;;-2.06;65.58;94390.31;5090723;28;20069;-43
2021/03/01 01:56:57;;;;;;;26.33;12.68;;;;;;;-2.03;65.92;94392.88;5090740;28;20035;-44
2021/03/01 01:59:22;;;;;;;16.88;10.10;;;;;;;-2.31;66.40;94391.25;5091842;28;20028;-43
2021/03/01 02:01:48;;;;;;;28.00;12.18;;;;;;;-2.22;66.10;94383.19;5090613;28;20056;-43
2021/03/01 02:04:31;;;;;;;35.13;15.00;;;;;;;-2.34;66.28;94394.84;5090569;28;20021;-45
2021/03/01 02:07:28;;;;;;;32.65;15.70;;;;;;;-2.28;66.75;94390.38;5090693;28;20089;-44
2021/03/01 02:10:06;;;;;;;26.92;13.70;;;;;;;-2.32;66.61;94392.44;5087252;28;20050;-44
2021/03/01 02:13:09;;;;;;;77.40;31.02;;;;;;;-2.64;67.98;94390.91;5091569;28;20423;-43
2021/03/01 02:15:45;;;;;;;92.07;39.70;;;;;;;-2.47;67.79;94384.09;5091584;28;20035;-41
2021/03/01 02:18:11;;;;;;;54.92;24.95;;;;;;;-2.44;67.12;94393.28;5090422;28;20081;-40
2021/03/01 02:20:47;;;;;;;46.63;20.02;;;;;;;-2.41;66.77;94393.16;5091684;28;20107;-40
2021/03/01 02:23:13;;;;;;;34.95;14.77;;;;;;;-2.60;67.08;94385.38;5091497;28;20381;-40
2021/03/01 02:26:00;;;;;;;38.85;16.58;;;;;;;-2.63;67.18;94378.13;5091306;28;20039;-40
2021/03/01 02:28:30;;;;;;;62.03;24.73;;;;;;;-2.79;68.25;94364.81;5090204;28;20032;-44
2021/03/01 02:30:58;;;;;;;34.15;16.00;;;;;;;-2.64;67.35;94377.38;5090299;28;20046;-45
2021/03/01 02:33:30;;;;;;;46.40;19.70;;;;;;;-2.53;67.28;94382.41;5090074;28;20043;-44
2021/03/01 02:36:00;;;;;;;47.08;21.40;;;;;;;-2.61;66.61;94381.16;5091208;28;20133;-45
2021/03/01 02:38:27;;;;;;;54.33;24.50;;;;;;;-2.42;66.46;94378.13;5090228;28;20024;-44
2021/03/01 02:40:54;;;;;;;59.00;24.55;;;;;;;-2.34;65.93;94378.63;5091151;28;20035;-45
2021/03/01 02:43:19;;;;;;;51.33;23.25;;;;;;;-2.89;67.65;94374.06;5089958;28;20024;-44
2021/03/01 02:45:46;;;;;;;70.82;26.60;;;;;;;-2.66;67.16;94376.31;5089874;28;20028;-45
2021/03/01 02:48:13;;;;;;;56.53;26.58;;;;;;;-2.72;68.25;94378.84;5089966;28;20024;-45
2021/03/01 02:50:39;;;;;;;53.33;24.40;;;;;;;-2.74;66.21;94366.97;5088989;28;20036;-45
2021/03/01 02:53:04;;;;;;;50.03;23.65;;;;;;;-2.55;66.87;94369.34;5089611;28;20153;-44
2021/03/01 02:55:30;;;;;;;58.85;26.63;;;;;;;-2.38;66.09;94369.88;5089764;28;20020;-43
2021/03/01 02:57:58;;;;;;;55.42;24.48;;;;;;;-2.33;66.02;94369.28;5089725;28;20089;-44
2021/03/01 03:00:24;;;;;;;60.28;23.20;;;;;;;-2.44;66.61;94368.94;5089527;28;20126;-44
2021/03/01 03:02:49;;;;;;;51.25;24.23;;;;;;;-2.61;66.15;94359.53;5089620;28;20107;-45
2021/03/01 03:05:17;;;;;;;45.53;22.88;;;;;;;-2.73;66.90;94371.19;5089512;28;20024;-45
2021/03/01 03:07:42;;;;;;;35.70;17.25;;;;;;;-2.90;66.79;94372.56;5090817;28;20028;-45
2021/03/01 03:10:09;;;;;;;21.02;11.35;;;;;;;-3.07;67.20;94363.88;5090894;28;20497;-46
2021/03/01 03:12:35;;;;;;;28.13;11.88;;;;;;;-2.98;66.47;94374.00;5089299;28;20027;-43
2021/03/01 03:15:01;;;;;;;67.85;25.88;;;;;;;-2.90;67.02;94369.88;5089570;28;20028;-44
2021/03/01 03:17:28;;;;;;;54.83;23.40;;;;;;;-2.88;67.36;94370.19;5090761;28;20393;-47
2021/03/01 03:19:53;;;;;;;64.53;28.80;;;;;;;-2.72;66.61;94369.97;5089565;28;20059;-44
2021/03/01 03:22:19;;;;;;;53.50;22.05;;;;;;;-2.91;67.03;94365.66;5089399;28;20130;-44
2021/03/01 03:24:44;;;;;;;52.25;22.52;;;;;;;-2.97;66.98;94368.16;5090641;28;20031;-46
2021/03/01 03:27:10;;;;;;;41.95;19.25;;;;;;;-2.90;66.95;94365.19;5089561;28;20024;-43
2021/03/01 03:29:35;;;;;;;29.65;13.50;;;;;;;-3.04;68.04;94359.53;5090576;28;20490;-44
2021/03/01 03:32:01;;;;;;;17.70;10.75;;;;;;;-3.00;66.78;94360.16;5090353;28;20028;-42
2021/03/01 03:34:27;;;;;;;23.30;13.68;;;;;;;-2.95;66.33;94357.69;5089955;28;20050;-43
2021/03/01 03:37:01;;;;;;;29.08;14.73;;;;;;;-2.99;66.56;94356.28;5089624;28;20067;-43
2021/03/01 03:39:27;;;;;;;32.20;14.57;;;;;;;-2.91;67.77;94354.84;5089247;28;20489;-45
2021/03/01 03:41:53;;;;;;;33.83;13.05;;;;;;;-2.99;68.47;94351.66;5090449;28;20028;-43
2021/03/01 03:44:19;;;;;;;26.48;12.07;;;;;;;-2.81;66.79;94356.41;5089272;28;20020;-43
2021/03/01 03:46:45;;;;;;;35.50;15.98;;;;;;;-2.88;67.14;94354.69;5089219;28;20028;-44
2021/03/01 03:49:11;;;;;;;44.67;19.77;;;;;;;-2.77;66.71;94346.97;5090484;28;20458;-45
2021/03/01 03:51:38;;;;;;;34.17;15.95;;;;;;;-2.90;66.51;94354.38;5094481;28;20058;-40
2021/03/01 03:54:20;;;;;;;36.65;16.95;;;;;;;-3.03;67.53;94353.69;5098750;28;20142;-41
2021/03/01 03:56:53;;;;;;;35.20;16.35;;;;;;;-3.07;67.84;94355.78;5100293;28;20024;-43
2021/03/01 03:59:19;;;;;;;39.22;17.02;;;;;;;-3.13;67.42;94349.44;5099212;28;20086;-41
2021/03/01 04:01:49;;;;;;;27.90;14.15;;;;;;;-3.22;67.74;94360.91;5100563;28;20043;-43
2021/03/01 04:04:16;;;;;;;24.73;13.32;;;;;;;-3.16;66.84;94361.84;5104802;28;20416;-44
2021/03/01 04:06:43;;;;;;;28.38;13.38;;;;;;;-3.14;67.11;94356.78;5102429;28;20423;-45
2021/03/01 04:09:11;;;;;;;30.23;14.55;;;;;;;-3.17;67.19;94362.31;5102061;28;20100;-44
2021/03/01 04:11:39;;;;;;;24.85;13.55;;;;;;;-3.08;67.33;94365.09;5101491;28;20103;-43
2021/03/01 04:14:04;;;;;;;29.98;13.50;;;;;;;-3.27;67.67;94364.16;5104499;28;20090;-44
2021/03/01 04:16:30;;;;;;;31.73;13.18;;;;;;;-3.30;67.72;94354.25;5101707;28;20355;-44
2021/03/01 04:18:59;;;;;;;29.73;13.55;;;;;;;-3.43;68.73;94363.59;5114321;28;20023;-44
2021/03/01 04:21:25;;;;;;;42.15;19.05;;;;;;;-3.35;68.12;94354.03;5112920;28;20031;-44
2021/03/01 04:23:52;;;;;;;39.00;18.83;;;;;;;-3.42;68.93;94368.53;5112886;28;20046;-43
2021/03/01 04:26:18;;;;;;;38.05;17.20;;;;;;;-3.38;68.36;94368.44;5112875;28;20109;-43
2021/03/01 04:28:44;;;;;;;35.45;16.95;;;;;;;-3.39;68.38;94367.69;5112916;28;20496;-45
2021/03/01 04:31:10;;;;;;;26.52;14.73;;;;;;;-3.35;66.59;94368.31;5112778;28;20031;-45
2021/03/01 04:33:37;;;;;;;27.90;16.20;;;;;;;-3.28;67.81;94367.31;5112586;28;20080;-45
2021/03/01 04:36:06;;;;;;;33.85;17.17;;;;;;;-3.36;67.73;94369.50;5112649;28;20055;-47
2021/03/01 04:38:32;;;;;;;34.80;18.42;;;;;;;-3.46;68.17;94367.16;5112767;28;20058;-45
2021/03/01 04:40:58;;;;;;;29.13;16.23;;;;;;;-3.49;68.04;94368.78;5113803;28;20038;-47
2021/03/01 04:43:24;;;;;;;30.63;17.15;;;;;;;-3.39;66.58;94370.38;5108129;28;20028;-48
2021/03/01 04:45:51;;;;;;;32.45;15.75;;;;;;;-3.49;67.06;94374.19;5103141;28;20032;-43
2021/03/01 04:48:17;;;;;;;37.38;17.20;;;;;;;-3.30;66.64;94369.69;5111502;28;20027;-45
2021/03/01 04:50:45;;;;;;;45.08;19.13;;;;;;;-3.38;67.11;94363.03;5097662;28;20040;-44
2021/03/01 04:53:11;;;;;;;38.63;19.80;;;;;;;-3.50;67.54;94367.28;5092965;28;20056;-45
2021/03/01 04:55:36;;;;;;;40.90;20.20;;;;;;;-3.62;68.01;94376.16;5091672;28;20062;-45
2021/03/01 04:58:02;;;;;;;41.53;19.15;;;;;;;-3.53;67.70;94370.84;5091856;28;20424;-45
2021/03/01 05:00:28;;;;;;;39.05;17.08;;;;;;;-3.50;67.25;94378.06;5091231;28;20071;-42
2021/03/01 05:02:53;;;;;;;39.10;18.88;;;;;;;-3.45;67.14;94355.16;5103809;28;20111;-43
2021/03/01 05:05:20;;;;;;;35.38;18.08;;;;;;;-3.33;67.53;94376.72;5112253;28;20089;-43
2021/03/01 05:07:46;;;;;;;49.20;20.00;;;;;;;-3.33;67.01;94378.66;5113211;28;20038;-43
2021/03/01 05:10:11;;;;;;;75.18;32.75;;;;;;;-3.34;66.84;94375.22;5112015;28;20510;-42
2021/03/01 05:12:37;;;;;;;187.05;75.47;;;;;;;-3.46;66.93;94381.41;5111762;28;20053;-42
2021/03/01 05:15:04;;;;;;;140.52;59.78;;;;;;;-3.31;66.52;94379.75;5111984;28;20049;-45
2021/03/01 05:17:29;;;;;;;97.93;42.55;;;;;;;-3.56;66.93;94374.41;5112914;28;20423;-43
2021/03/01 05:19:55;;;;;;;84.38;36.67;;;;;;;-3.64;68.38;94383.94;5112905;28;20035;-43
2021/03/01 05:22:21;;;;;;;51.05;22.98;;;;;;;-3.43;67.62;94375.16;5112881;28;20502;-44
2021/03/01 05:24:46;;;;;;;59.30;27.80;;;;;;;-3.28;67.16;94373.47;5106613;28;20105;-43
2021/03/01 05:27:12;;;;;;;72.35;31.88;;;;;;;-3.36;67.37;94377.63;5092353;28;20512;-43
2021/03/01 05:29:37;;;;;;;120.53;51.38;;;;;;;-3.45;67.56;94385.63;5092455;28;20031;-43
2021/03/01 05:32:04;;;;;;;151.95;66.68;;;;;;;-3.54;67.14;94382.06;5092213;28;20554;-46
2021/03/01 05:34:30;;;;;;;60.45;32.20;;;;;;;-3.79;67.95;94385.59;5092180;28;20028;-46
2021/03/01 05:36:55;;;;;;;57.47;27.70;;;;;;;-3.80;68.78;94386.00;5092168;28;20035;-44
2021/03/01 05:39:21;;;;;;;48.95;23.40;;;;;;;-3.67;68.60;94378.66;5104476;28;20032;-43
2021/03/01 05:41:47;;;;;;;39.47;21.63;;;;;;;-3.59;68.87;94386.06;5112443;28;20453;-43
2021/03/01 05:44:13;;;;;;;41.72;21.25;;;;;;;-3.29;68.58;94382.03;5112367;28;20049;-44
2021/03/01 05:46:41;;;;;;;49.38;24.92;;;;;;;-3.40;68.06;94368.84;5112745;28;20388;-44
2021/03/01 05:49:08;;;;;;;56.95;28.92;;;;;;;-3.15;67.85;94376.88;5112326;28;20031;-47
2021/03/01 05:51:36;;;;;;;75.20;33.28;;;;;;;-3.10;67.22;94379.00;5112344;28;20106;-44
2021/03/01 05:54:02;;;;;;;134.73;55.47;;;;;;;-2.94;67.67;94380.03;5111186;28;20440;-43
2021/03/01 05:56:28;;;;;;;135.23;59.05;;;;;;;-2.86;67.16;94381.31;5112199;28;20066;-46
2021/03/01 05:58:55;;;;;;;135.45;62.75;;;;;;;-2.72;65.87;94364.56;5112075;28;20077;-44
2021/03/01 06:01:23;;;;;;;109.90;53.08;;;;;;;-2.74;66.80;94364.25;5111957;28;20048;-44
2021/03/01 06:03:48;;;;;;;80.90;39.58;;;;;;;-2.81;67.57;94373.38;5112086;28;20034;-45
2021/03/01 06:06:14;;;;;;;54.63;29.13;;;;;;;-3.10;68.98;94370.91;5110858;28;20031;-45
2021/03/01 06:08:39;;;;;;;44.28;23.83;;;;;;;-3.05;68.76;94376.97;5102396;28;20121;-44
2021/03/01 06:11:06;;;;;;;41.88;21.45;;;;;;;-2.90;69.16;94364.47;5108341;28;20498;-49
2021/03/01 06:13:32;;;;;;;40.00;20.70;;;;;;;-2.82;69.83;94368.41;5090165;28;20032;-45
2021/03/01 06:15:59;;;;;;;33.65;17.55;;;;;;;-2.61;69.97;94367.63;5090367;28;20038;-48
2021/03/01 06:18:25;;;;;;;33.92;16.77;;;;;;;-2.37;69.87;94366.72;5089003;28;20511;-47
2021/03/01 06:20:52;;;;;;;34.10;17.50;;;;;;;-2.11;68.88;94369.25;5090055;28;20044;-44
2021/03/01 06:23:31;;;;;;;96.03;36.55;;;;;;;-1.87;69.72;94370.25;5089691;28;20036;-45
2021/03/01 06:26:15;;;;;;;;;;;;;;;-1.23;69.07;94373.81;5090815;28;20032;-45
2021/03/01 06:28:41;;;;;;;27.80;12.40;;;;;;;-0.40;66.34;94360.50;5090006;28;19916;-45
2021/03/01 06:31:45;;;;;;;18.77;10.80;;;;;;;0.35;64.82;94365.94;5088614;28;20558;-45
2021/03/01 06:34:30;;;;;;;23.65;12.55;;;;;;;1.46;61.58;94356.09;5090317;28;20028;-44
2021/03/01 06:36:55;;;;;;;103.20;44.20;;;;;;;2.57;58.36;94368.75;5090089;28;20121;-46
2021/03/01 06:39:40;;;;;;;149.95;66.35;;;;;;;3.28;56.02;94375.59;5100007;28;20502;-47
2021/03/01 06:45:03;;;;;;;70.47;35.03;;;;;;;6.06;48.10;94361.16;5108846;28;20431;-48
2021/03/01 06:48:04;;;;;;;62.25;26.33;;;;;;;7.44;44.13;94362.16;5102547;28;20055;-46
2021/03/01 06:50:34;;;;;;;44.33;22.42;;;;;;;8.67;41.31;94368.38;5067126;28;20032;-46
2021/03/01 06:53:04;;;;;;;44.08;24.83;;;;;;;9.65;38.63;94363.06;5102259;28;20047;-46
2021/03/01 06:55:30;;;;;;;42.22;25.90;;;;;;;10.65;37.14;94359.59;5109933;28;20032;-47
2021/03/01 06:57:56;;;;;;;30.95;18.50;;;;;;;10.98;35.61;94363.09;5109870;28;20065;-47
2021/03/01 07:00:24;;;;;;;28.30;20.75;;;;;;;11.94;34.61;94362.22;5109706;28;20051;-48
2021/03/01 07:02:49;;;;;;;24.30;15.05;;;;;;;12.02;33.33;94351.97;5090821;28;20093;-47
2021/03/01 07:05:15;;;;;;;27.00;19.65;;;;;;;12.81;32.85;94352.41;5100384;28;20027;-49
2021/03/01 07:07:41;;;;;;;20.83;15.48;;;;;;;13.71;31.61;94364.69;5109681;28;20051;-47
2021/03/01 07:10:09;;;;;;;18.85;13.30;;;;;;;14.35;30.55;94360.53;5109680;28;20026;-47
2021/03/01 07:12:42;;;;;;;15.23;10.60;;;;;;;14.74;29.55;94367.66;5109574;28;20469;-48
2021/03/01 07:15:09;;;;;;;21.45;13.15;;;;;;;14.06;30.86;94367.44;5092567;28;20032;-46
2021/03/01 07:17:40;;;;;;;13.45;8.95;;;;;;;15.03;29.46;94363.38;5089185;28;20111;-47
2021/03/01 07:20:08;;;;;;;15.05;10.68;;;;;;;15.43;28.15;94354.47;5089293;28;20085;-46
2021/03/01 07:22:34;;;;;;;10.73;8.27;;;;;;;16.03;27.80;94364.72;5089501;28;20089;-46
2021/03/01 07:25:00;;;;;;;12.20;9.60;;;;;;;16.57;27.37;94352.78;5087943;28;20517;-46
2021/03/01 07:27:27;;;;;;;12.05;8.32;;;;;;;17.00;25.47;94354.38;5088173;28;20673;-44
2021/03/01 07:29:57;;;;;;;9.88;7.95;;;;;;;17.39;24.84;94342.31;5087564;28;20032;-44
2021/03/01 07:32:26;;;;;;;13.80;9.68;;;;;;;17.64;24.54;94353.47;5089471;28;20036;-48
2021/03/01 07:34:52;;;;;;;12.45;8.95;;;;;;;17.75;24.83;94345.34;5090151;28;20051;-46
2021/03/01 07:37:18;;;;;;;12.52;9.20;;;;;;;18.13;24.61;94337.28;5091260;28;20070;-48
2021/03/01 07:39:44;;;;;;;12.00;8.55;;;;;;;18.31;24.48;94340.03;5093510;28;20511;-49
2021/03/01 07:42:13;;;;;;;12.55;9.20;;;;;;;18.81;23.40;94330.06;5093509;28;20526;-48
2021/03/01 07:44:38;;;;;;;;;;;;;;;19.01;22.61;94342.06;5092642;28;20034;-47
2021/03/01 07:47:05;;;;;;;12.43;9.10;;;;;;;18.60;23.61;94332.59;5093130;28;20477;-48
2021/03/01 07:49:48;;;;;;;12.38;8.65;;;;;;;19.48;22.54;94336.66;5093055;28;20119;-50
2021/03/01 07:52:19;;;;;;;9.48;8.43;;;;;;;19.64;22.34;94329.44;5092972;28;20058;-49
2021/03/01 07:54:55;;;;;;;12.93;9.45;;;;;;;20.07;21.71;94336.13;5092845;28;20093;-46
2021/03/01 07:57:22;;;;;;;17.58;10.48;;;;;;;20.15;21.99;94330.38;5094831;28;20040;-47
2021/03/01 07:59:48;;;;;;;10.90;9.70;;;;;;;20.45;20.99;94326.97;5092702;28;20551;-47
2021/03/01 08:02:20;;;;;;;12.88;10.10;;;;;;;20.23;21.37;94328.16;5091154;28;20136;-47
2021/03/01 08:04:46;;;;;;;14.23;9.80;;;;;;;20.03;21.38;94326.69;5093108;28;20043;-46
2021/03/01 08:07:11;;;;;;;12.80;10.50;;;;;;;20.13;21.17;94330.97;5092866;28;20035;-48
2021/03/01 08:09:50;;;;;;;15.57;10.43;;;;;;;19.50;21.78;94338.88;5092586;28;20036;-48
2021/03/01 08:12:39;;;;;;;13.48;10.63;;;;;;;18.16;23.29;94324.22;5107290;28;20027;-46
2021/03/01 08:15:09;;;;;;;12.95;10.13;;;;;;;17.11;24.73;94321.16;5107029;28;20430;-46
2021/03/01 08:17:36;;;;;;;18.00;12.38;;;;;;;17.82;24.65;94324.97;5099364;28;20059;-46
2021/03/01 08:20:14;;;;;;;13.55;10.18;;;;;;;19.19;22.54;94324.59;5092216;28;20111;-45
2021/03/01 08:23:04;;;;;;;15.15;11.05;;;;;;;19.80;21.80;94321.50;5093535;28;20807;-48
2021/03/01 08:25:46;;;;;;;14.30;10.98;;;;;;;19.66;21.91;94317.66;5092349;28;20093;-47
2021/03/01 08:28:17;;;;;;;13.13;10.00;;;;;;;20.69;21.05;94316.72;5092160;28;20061;-48
2021/03/01 08:30:56;;;;;;;13.93;7.97;;;;;;;21.40;19.06;94311.88;5092521;28;20727;-50
2021/03/01 08:33:24;;;;;;;53.30;26.48;;;;;;;21.63;19.40;94320.47;5092365;28;20036;-46
2021/03/01 08:36:02;;;;;;;20.33;12.32;;;;;;;22.22;18.98;94316.63;5092326;28;20089;-47
2021/03/01 08:38:42;;;;;;;14.32;7.80;;;;;;;21.01;19.68;94305.66;5097009;28;20023;-45
2021/03/01 08:41:13;;;;;;;17.77;9.57;;;;;;;21.42;20.53;94308.47;5112691;28;20507;-46
2021/03/01 08:43:44;;;;;;;16.58;11.48;;;;;;;22.09;20.19;94308.75;5112370;28;20122;-45
2021/03/01 08:46:16;;;;;;;30.98;18.27;;;;;;;21.78;20.07;94310.91;5111183;28;20023;-44
2021/03/01 08:48:43;;;;;;;44.05;27.60;;;;;;;22.44;18.96;94308.88;5091274;27;20039;-43
2021/03/01 08:51:09;;;;;;;20.83;13.63;;;;;;;22.31;18.74;94304.56;5092495;28;20449;-43
2021/03/01 08:53:35;;;;;;;19.05;12.27;;;;;;;20.88;19.89;94314.59;5091166;28;20055;-44
2021/03/01 08:56:01;;;;;;;18.65;13.65;;;;;;;19.95;20.72;94314.88;5105040;28;20427;-42
2021/03/01 08:58:33;;;;;;;16.17;12.10;;;;;;;18.77;21.74;94324.16;5111971;28;20036;-42
2021/03/01 09:01:03;;;;;;;26.63;17.75;;;;;;;18.29;23.69;94314.72;5111149;28;20539;-46
2021/03/01 09:03:34;;;;;;;13.57;9.85;;;;;;;19.30;21.75;94321.25;5111919;27;20055;-44
2021/03/01 09:06:20;;;;;;;15.20;9.32;;;;;;;18.25;22.28;94315.16;5109029;28;20111;-44
2021/03/01 09:08:46;;;;;;;10.90;7.45;;;;;;;16.98;22.85;94320.75;5094230;28;20036;-44
2021/03/01 09:11:24;;;;;;;9.32;6.10;;;;;;;16.60;23.10;94324.53;5100885;28;20054;-43
2021/03/01 09:13:52;;;;;;;11.30;7.27;;;;;;;16.57;23.26;94334.03;5111809;28;20098;-44
2021/03/01 09:16:25;;;;;;;8.63;5.32;;;;;;;16.96;22.42;94314.97;5112071;28;20268;-45
2021/03/01 09:19:05;;;;;;;8.00;5.07;;;;;;;17.69;21.60;94330.91;5111633;28;20031;-44
2021/03/01 09:21:34;;;;;;;8.90;5.38;;;;;;;17.57;22.02;94331.94;5111552;27;20035;-43
2021/03/01 09:24:00;;;;;;;9.88;6.82;;;;;;;16.79;23.80;94334.44;5111268;28;20035;-45
2021/03/01 09:26:32;;;;;;;9.75;7.10;;;;;;;16.61;24.52;94323.22;5111655;28;20173;-44
2021/03/01 09:29:03;;;;;;;8.35;6.15;;;;;;;17.34;24.10;94327.31;5111339;28;20032;-46
2021/03/01 09:31:39;;;;;;;11.93;7.00;;;;;;;18.12;23.02;94333.00;5111524;28;20406;-44
2021/03/01 09:34:08;;;;;;;13.73;5.82;;;;;;;18.30;21.93;94321.81;5111042;28;20098;-43
2021/03/01 09:36:34;;;;;;;6.22;4.80;;;;;;;18.36;23.17;94328.63;5109368;28;20023;-43
2021/03/01 09:39:03;;;;;;;8.52;5.22;;;;;;;18.63;21.67;94320.25;5100524;28;20563;-44
2021/03/01 09:41:36;;;;;;;6.90;5.25;;;;;;;19.44;21.60;94322.34;5090637;28;20057;-44
2021/03/01 09:44:01;;;;;;;10.13;6.82;;;;;;;20.30;21.72;94318.88;5089162;28;20036;-44
2021/03/01 09:46:28;;;;;;;11.07;7.95;;;;;;;19.68;20.81;94318.53;5088978;28;20023;-47
2021/03/01 09:48:59;;;;;;;8.48;6.55;;;;;;;20.01;21.30;94329.34;5088735;28;20020;-44
2021/03/01 09:51:26;;;;;;;8.05;5.00;;;;;;;20.32;20.12;94290.97;5088337;28;20066;-46
2021/03/01 09:53:52;;;;;;;10.40;5.70;;;;;;;19.96;19.93;94338.78;5089300;28;20031;-44
2021/03/01 09:56:17;;;;;;;8.00;5.03;;;;;;;20.37;20.01;94329.19;5088229;28;20020;-44
2021/03/01 09:58:45;;;;;;;7.88;5.70;;;;;;;20.18;19.84;94338.31;5089115;28;20030;-44
2021/03/01 10:01:19;;;;;;;7.93;6.63;;;;;;;20.62;18.53;94326.78;5088865;28;20068;-44
2021/03/01 10:03:49;;;;;;;9.30;6.75;;;;;;;20.57;18.85;94335.50;5090636;28;20390;-44
2021/03/01 10:06:16;;;;;;;9.55;5.82;;;;;;;19.57;20.64;94341.53;5090352;28;20020;-45
2021/03/01 10:08:42;;;;;;;8.80;6.43;;;;;;;19.12;20.40;94345.06;5093452;28;20035;-44
2021/03/01 10:11:22;;;;;;;16.38;7.97;;;;;;;17.84;22.91;94338.38;5108409;28;20027;-44
2021/03/01 10:13:48;;;;;;;11.85;7.45;;;;;;;16.85;23.80;94343.34;5099259;28;20031;-45
2021/03/01 10:16:29;;;;;;;10.25;7.63;;;;;;;16.07;24.39;94348.38;5103817;28;20024;-45
2021/03/01 10:18:56;;;;;;;9.13;8.05;;;;;;;15.61;25.48;94336.66;5109587;28;20632;-44
2021/03/01 10:21:31;;;;;;;10.88;8.05;;;;;;;15.19;26.09;94337.06;5110566;28;20073;-46
2021/03/01 10:24:06;;;;;;;11.52;8.45;;;;;;;14.58;27.31;94346.66;5110840;28;20023;-48
2021/03/01 10:26:32;;;;;;;14.73;9.98;;;;;;;13.91;28.00;94350.72;5110908;27;20027;-45
2021/03/01 10:29:00;;;;;;;15.68;8.13;;;;;;;13.21;29.30;94350.13;5110745;28;20411;-45
2021/03/01 10:31:37;;;;;;;11.55;8.38;;;;;;;13.00;30.60;94349.41;5109949;28;20508;-46
2021/03/01 10:34:04;;;;;;;12.95;8.23;;;;;;;12.70;30.76;94344.34;5103593;28;20016;-45
2021/03/01 10:36:52;;;;;;;16.05;9.10;;;;;;;12.90;30.56;94346.38;5108449;28;20515;-46
2021/03/01 10:39:28;;;;;;;16.88;11.57;;;;;;;12.33;32.69;94344.00;5108532;28;20026;-46
2021/03/01 10:41:55;;;;;;;7.15;6.35;;;;;;;11.91;32.51;94343.19;5110597;28;20039;-44
2021/03/01 10:44:31;;;;;;;8.43;6.15;;;;;;;11.80;30.82;94348.94;5109026;28;20035;-44
2021/03/01 10:46:58;;;;;;;10.60;6.95;;;;;;;12.07;30.88;94334.50;5110214;28;20035;-45
2021/03/01 10:49:25;;;;;;;10.02;6.43;;;;;;;11.91;31.75;94332.13;5108960;28;20030;-48
2021/03/01 10:51:52;;;;;;;12.50;7.13;;;;;;;12.01;31.80;94325.59;5109855;28;20110;-46
2021/03/01 10:54:18;;;;;;;10.68;7.30;;;;;;;11.96;32.90;94329.22;5110169;28;20023;-45
2021/03/01 10:56:43;;;;;;;10.25;7.50;;;;;;;11.47;33.30;94336.53;5095272;28;20560;-45
2021/03/01 10:59:09;;;;;;;12.20;8.13;;;;;;;11.51;33.65;94328.63;5109763;28;20106;-45
2021/03/01 11:01:36;;;;;;;12.40;7.82;;;;;;;10.97;33.80;94343.00;5109839;28;20043;-44
2021/03/01 11:04:02;;;;;;;15.85;8.13;;;;;;;10.93;34.18;94339.06;5098680;28;20028;-49
2021/03/01 11:06:28;;;;;;;12.20;6.88;;;;;;;10.59;33.65;94330.59;5105344;28;20012;-43
2021/03/01 11:08:53;;;;;;;10.95;8.23;;;;;;;10.86;34.40;94350.72;5099697;28;20023;-46
2021/03/01 11:11:19;;;;;;;14.70;7.05;;;;;;;11.09;33.81;94349.81;5096301;28;20779;-43
2021/03/01 11:13:44;;;;;;;10.15;7.30;;;;;;;11.15;35.03;94344.19;5093983;28;20019;-45
2021/03/01 11:16:09;;;;;;;16.33;10.07;;;;;;;11.40;33.76;94342.69;5093642;28;20015;-44
2021/03/01 11:18:35;;;;;;;10.65;7.63;;;;;;;11.29;32.77;94346.41;5109738;28;20071;-46
2021/03/01 11:21:00;;;;;;;12.80;8.63;;;;;;;11.26;34.51;94339.16;5109966;28;20034;-45
2021/03/01 11:23:26;;;;;;;8.50;6.53;;;;;;;10.44;35.09;94342.13;5109532;28;20555;-45
2021/03/01 11:25:51;;;;;;;13.18;8.05;;;;;;;10.23;37.01;94355.00;5109792;28;20027;-44
2021/03/01 11:28:17;;;;;;;11.27;7.38;;;;;;;9.82;39.31;94349.81;5109748;28;20016;-45
2021/03/01 11:30:42;;;;;;;18.92;11.77;;;;;;;10.04;38.95;94348.75;5109000;28;20046;-43